Time;durP1;ratioP1;P1;durP2;ratioP2;P2;SDS_P1;SDS_P2;PMS_P1;PMS_P2;Temp;Humidity;BMP_temperature;BMP_pressure;BME280_temperature;BME280_humidity;BME280_pressure;Samples;Min_cycle;Max_cycle;Signal;HPM_P1;HPM_P2
2023/05/12 14:53:51;;;;;;;7.43;6.43;;;10.80;99.90;;;;;;5654402;23;20053;-79
2023/05/12 14:56:17;;;;;;;12.77;7.07;;;10.80;99.90;;;;;;5013165;28;20077;-79
2023/05/12 14:58:42;;;;;;;8.55;6.88;;;10.80;99.90;;;;;;5013449;28;20034;-81
2023/05/12 15:01:08;;;;;;;8.57;6.05;;;10.80;99.90;;;;;;5009801;28;20041;-65
2023/05/12 15:03:33;;;;;;;11.52;7.22;;;10.90;99.90;;;;;;5017363;28;20105;-64
2023/05/12 15:05:59;;;;;;;10.10;7.78;;;10.90;99.90;;;;;;5017648;28;20030;-65
2023/05/12 15:08:25;;;;;;;8.98;6.55;;;11.10;99.90;;;;;;5017011;28;20097;-65
2023/05/12 15:10:50;;;;;;;6.53;5.88;;;11.10;99.90;;;;;;5017537;28;20022;-65
2023/05/12 15:13:18;;;;;;;7.78;6.28;;;11.10;99.90;;;;;;5018773;28;20034;-66
2023/05/12 15:15:45;;;;;;;10.73;6.55;;;11.10;99.90;;;;;;5002937;28;20125;-66
2023/05/12 15:18:11;;;;;;;9.00;7.28;;;11.20;99.90;;;;;;5019795;28;20061;-69
2023/05/12 15:20:37;;;;;;;8.80;7.70;;;11.20;99.90;;;;;;5018769;28;20026;-66
2023/05/12 15:23:03;;;;;;;7.63;6.20;;;11.20;99.90;;;;;;5018006;28;20030;-67
2023/05/12 15:25:28;;;;;;;10.63;6.63;;;11.20;99.90;;;;;;5018050;28;20037;-67
2023/05/12 15:27:54;;;;;;;12.88;7.13;;;11.20;99.90;;;;;;5017445;28;20504;-65
2023/05/12 15:30:20;;;;;;;9.40;7.40;;;11.20;99.90;;;;;;5017236;28;20045;-66
2023/05/12 15:32:45;;;;;;;8.93;7.53;;;11.20;99.90;;;;;;5017245;28;20031;-66
2023/05/12 15:35:12;;;;;;;9.02;7.90;;;11.30;99.90;;;;;;5017692;28;20376;-79
2023/05/12 15:37:37;;;;;;;8.55;7.60;;;11.30;99.90;;;;;;5018292;28;20092;-77
2023/05/12 15:40:04;;;;;;;11.80;8.02;;;11.40;99.90;;;;;;5016896;28;20420;-76
2023/05/12 15:42:30;;;;;;;9.57;7.68;;;11.50;99.90;;;;;;5000309;28;20034;-77
2023/05/12 15:44:56;;;;;;;9.50;6.65;;;11.50;99.90;;;;;;4998970;28;20084;-78
2023/05/12 15:47:22;;;;;;;8.57;6.75;;;11.50;99.90;;;;;;5016765;28;20026;-78
2023/05/12 15:49:47;;;;;;;10.25;6.80;;;11.50;99.90;;;;;;5017439;28;20038;-79
2023/05/12 15:52:13;;;;;;;11.02;7.05;;;11.40;99.90;;;;;;5017310;28;20038;-79
2023/05/12 15:54:39;;;;;;;10.00;7.22;;;11.30;99.90;;;;;;5020274;28;20073;-78
2023/05/12 15:57:05;;;;;;;7.97;6.97;;;11.30;99.90;;;;;;5000208;28;20048;-78
2023/05/12 15:59:31;;;;;;;9.63;6.75;;;11.30;99.90;;;;;;5017129;28;20185;-77
2023/05/12 16:01:57;;;;;;;11.15;7.07;;;11.30;99.90;;;;;;5000065;28;20500;-82
2023/05/12 16:04:24;;;;;;;8.98;6.60;;;11.30;99.90;;;;;;5017109;28;20412;-79
2023/05/12 16:06:50;;;;;;;6.63;5.75;;;11.30;99.90;;;;;;5000242;28;20049;-81
2023/05/12 16:09:15;;;;;;;7.00;6.18;;;11.30;99.90;;;;;;5017170;28;20030;-83
2023/05/12 16:11:41;;;;;;;7.63;6.28;;;11.20;99.90;;;;;;5000591;28;20041;-79
2023/05/12 16:14:07;;;;;;;7.05;6.30;;;11.20;99.90;;;;;;5000695;28;20056;-78
2023/05/12 16:16:33;;;;;;;8.38;5.97;;;11.20;99.90;;;;;;5021419;28;20083;-79
2023/05/12 16:18:59;;;;;;;9.07;6.28;;;11.10;99.90;;;;;;5027678;28;20030;-79
2023/05/12 16:21:24;;;;;;;13.23;6.80;;;11.00;99.90;;;;;;5009944;28;20041;-79
2023/05/12 16:23:50;;;;;;;7.97;6.25;;;11.00;99.90;;;;;;5027774;28;20034;-78
2023/05/12 16:26:18;;;;;;;9.15;7.30;;;10.90;99.90;;;;;;5029639;28;20057;-77
2023/05/12 16:28:43;;;;;;;9.50;6.35;;;10.80;99.90;;;;;;5029702;28;20041;-79
2023/05/12 16:31:09;;;;;;;10.38;6.50;;;10.80;99.90;;;;;;5014008;28;20026;-80
2023/05/12 16:33:35;;;;;;;10.07;6.93;;;10.70;99.90;;;;;;5012241;28;20492;-78
2023/05/12 16:36:00;;;;;;;10.75;7.97;;;10.60;99.90;;;;;;5031299;28;20053;-78
2023/05/12 16:38:26;;;;;;;11.43;8.25;;;10.60;99.90;;;;;;5027744;28;20489;-67
2023/05/12 16:40:51;;;;;;;11.90;8.30;;;10.60;99.90;;;;;;5015103;28;20080;-67
2023/05/12 16:43:17;;;;;;;11.15;8.07;;;10.50;99.90;;;;;;5016448;28;20092;-69
2023/05/12 16:45:43;;;;;;;12.73;9.02;;;10.50;99.90;;;;;;5015831;28;20034;-66
2023/05/12 16:48:08;;;;;;;11.38;8.40;;;10.60;99.90;;;;;;5016595;28;20040;-67
2023/05/12 16:50:34;;;;;;;11.10;8.43;;;10.60;99.90;;;;;;5017013;28;20087;-67
2023/05/12 16:52:59;;;;;;;11.85;8.98;;;10.50;99.90;;;;;;5017803;28;20030;-66
2023/05/12 16:55:25;;;;;;;12.75;9.82;;;10.50;99.90;;;;;;5019192;28;20042;-68
2023/05/12 16:57:51;;;;;;;11.80;8.77;;;10.50;99.90;;;;;;5019561;28;20041;-66
2023/05/12 17:00:17;;;;;;;10.68;8.43;;;10.50;99.90;;;;;;5017102;28;20549;-66
2023/05/12 17:02:42;;;;;;;16.83;9.85;;;10.50;99.90;;;;;;5015250;28;20074;-66
2023/05/12 17:05:08;;;;;;;14.27;8.68;;;10.50;99.90;;;;;;4998055;28;20034;-65
2023/05/12 17:07:34;;;;;;;16.48;10.00;;;10.50;99.90;;;;;;5015216;28;20038;-64
2023/05/12 17:10:00;;;;;;;12.90;8.27;;;10.50;99.90;;;;;;5018358;28;20029;-76
2023/05/12 17:12:26;;;;;;;12.50;8.27;;;10.40;99.90;;;;;;5033545;28;20086;-78
2023/05/12 17:14:51;;;;;;;11.27;7.88;;;10.40;99.90;;;;;;5028317;28;20034;-78
2023/05/12 17:17:17;;;;;;;10.07;8.07;;;10.40;99.90;;;;;;5025539;28;20038;-74
2023/05/12 17:19:43;;;;;;;7.78;5.60;;;10.40;99.90;;;;;;5019845;28;20038;-76
2023/05/12 17:22:09;;;;;;;8.80;6.50;;;10.30;99.90;;;;;;4992259;28;20045;-77
2023/05/12 17:24:34;;;;;;;10.85;5.80;;;10.20;99.90;;;;;;4993362;28;20058;-78
2023/05/12 17:27:01;;;;;;;8.93;6.28;;;10.20;99.90;;;;;;5009800;28;20031;-79
2023/05/12 17:29:27;;;;;;;10.80;6.43;;;10.10;99.90;;;;;;5005873;28;20481;-77
2023/05/12 17:31:52;;;;;;;10.70;6.75;;;10.20;99.90;;;;;;5010871;28;20042;-78
2023/05/12 17:34:18;;;;;;;10.43;6.57;;;10.10;99.90;;;;;;4993090;28;20030;-77
2023/05/12 17:36:44;;;;;;;11.00;6.85;;;10.10;99.90;;;;;;5011486;28;20042;-79
2023/05/12 17:39:13;;;;;;;8.68;7.00;;;10.10;99.90;;;;;;5008944;28;20027;-79
2023/05/12 17:41:39;;;;;;;10.60;7.10;;;10.10;99.90;;;;;;4991714;28;20038;-77
2023/05/12 17:44:04;;;;;;;11.25;7.38;;;10.10;99.90;;;;;;5009755;28;20094;-78
2023/05/12 17:46:30;;;;;;;9.32;7.40;;;10.10;99.90;;;;;;4992998;28;20045;-79
2023/05/12 17:48:56;;;;;;;10.50;7.30;;;10.00;99.90;;;;;;5011361;28;20088;-79
2023/05/12 17:51:21;;;;;;;10.95;7.70;;;10.00;99.90;;;;;;4991742;28;20056;-79
2023/05/12 17:53:47;;;;;;;11.20;8.18;;;10.00;99.90;;;;;;5000651;28;20057;-72
2023/05/12 17:56:12;;;;;;;15.50;7.53;;;10.10;99.90;;;;;;5000364;28;20034;-68
2023/05/12 17:58:38;;;;;;;11.00;6.75;;;10.10;99.90;;;;;;4998067;28;20085;-74
2023/05/12 18:01:04;;;;;;;12.40;7.05;;;10.10;99.90;;;;;;4999556;28;20033;-66
2023/05/12 18:03:29;;;;;;;8.43;6.72;;;10.10;99.90;;;;;;4997796;28;20102;-67
2023/05/12 18:05:55;;;;;;;8.60;6.40;;;10.10;99.90;;;;;;4999911;28;20042;-69
2023/05/12 18:08:21;;;;;;;6.60;5.90;;;10.10;99.90;;;;;;5008472;28;20034;-79
2023/05/12 18:10:46;;;;;;;9.90;6.55;;;10.10;99.90;;;;;;5010188;28;20037;-78
2023/05/12 18:13:13;;;;;;;10.25;6.55;;;10.10;99.90;;;;;;4990916;28;20038;-77
2023/05/12 18:15:39;;;;;;;11.57;6.78;;;10.10;99.90;;;;;;5011956;28;20030;-82
2023/05/12 18:18:05;;;;;;;9.43;7.22;;;10.10;99.90;;;;;;4991287;28;20478;-80
2023/05/12 18:20:31;;;;;;;9.00;7.57;;;10.10;99.90;;;;;;5010064;28;20035;-80
2023/05/12 18:22:56;;;;;;;10.90;7.60;;;10.10;99.90;;;;;;4990862;28;20038;-78
2023/05/12 18:25:22;;;;;;;12.32;8.40;;;10.10;99.90;;;;;;5009146;28;20031;-78
2023/05/12 18:27:47;;;;;;;12.88;8.65;;;10.00;99.90;;;;;;5008783;28;20046;-78
2023/05/12 18:30:13;;;;;;;13.25;8.90;;;10.00;99.90;;;;;;5009013;28;20031;-79
2023/05/12 18:32:40;;;;;;;12.10;9.63;;;10.00;99.90;;;;;;5009635;28;20038;-77
2023/05/12 18:35:07;;;;;;;14.38;10.85;;;10.00;99.90;;;;;;5008580;28;20050;-80
2023/05/12 18:37:33;;;;;;;16.17;11.70;;;10.00;99.90;;;;;;4989765;28;20101;-80
2023/05/12 18:39:58;;;;;;;16.98;11.85;;;10.00;99.90;;;;;;5008324;28;20041;-79
2023/05/12 18:42:27;;;;;;;16.27;12.35;;;10.00;99.90;;;;;;4990359;28;20041;-79
2023/05/12 18:44:53;;;;;;;;;;;10.00;99.90;;;;;;4989730;28;20030;-79
2023/05/12 18:47:19;;;;;;;19.52;14.68;;;10.00;99.90;;;;;;5005376;28;19905;-79
2023/05/12 18:49:45;;;;;;;18.30;14.25;;;10.10;99.90;;;;;;4985347;28;20034;-80
2023/05/12 18:52:11;;;;;;;17.75;15.30;;;10.10;99.90;;;;;;5002574;28;20030;-78
2023/05/12 18:54:38;;;;;;;21.45;15.95;;;10.00;99.90;;;;;;4984759;28;20472;-81
2023/05/12 18:57:04;;;;;;;20.60;16.65;;;10.10;99.90;;;;;;4985791;28;20385;-80
2023/05/12 18:59:30;;;;;;;24.25;17.02;;;10.00;99.90;;;;;;4987863;28;20041;-77
2023/05/12 19:01:55;;;;;;;21.40;15.88;;;10.10;99.90;;;;;;5004974;28;20030;-79
2023/05/12 19:04:21;;;;;;;19.30;16.92;;;10.10;99.90;;;;;;5006230;28;20185;-80
2023/05/12 19:06:47;;;;;;;20.38;16.35;;;10.10;99.90;;;;;;4989460;28;20125;-79
2023/05/12 19:09:13;;;;;;;19.17;16.40;;;10.10;99.90;;;;;;5005414;28;20462;-77
2023/05/12 19:11:39;;;;;;;23.20;17.20;;;10.10;99.90;;;;;;4985973;28;20065;-79
2023/05/12 19:14:04;;;;;;;20.83;16.05;;;10.10;99.90;;;;;;4987134;28;20065;-79
2023/05/12 19:16:30;;;;;;;17.00;15.00;;;10.10;99.90;;;;;;5003601;28;20122;-79
2023/05/12 19:18:56;;;;;;;19.70;14.57;;;10.20;99.90;;;;;;5003676;28;20035;-79
2023/05/12 19:21:22;;;;;;;15.68;12.70;;;10.20;99.90;;;;;;4987149;28;20037;-81
2023/05/12 19:23:48;;;;;;;14.25;12.50;;;10.10;99.90;;;;;;5006399;28;20038;-80
2023/05/12 19:26:13;;;;;;;16.98;13.63;;;10.10;99.90;;;;;;5004942;28;20061;-79
2023/05/12 19:28:39;;;;;;;10.70;9.55;;;10.20;99.90;;;;;;4987408;28;20039;-79
2023/05/12 19:31:04;;;;;;;13.10;10.85;;;10.20;99.90;;;;;;5008368;28;20046;-79
2023/05/12 19:33:31;;;;;;;13.48;11.07;;;10.10;99.90;;;;;;4990535;28;20034;-79
2023/05/12 19:35:57;;;;;;;15.55;11.57;;;10.10;99.90;;;;;;5007909;28;20039;-77
2023/05/12 19:38:23;;;;;;;14.20;12.70;;;10.10;99.90;;;;;;4989613;28;20042;-76
2023/05/12 19:40:48;;;;;;;15.68;11.65;;;10.10;99.90;;;;;;5009059;28;20054;-74
2023/05/12 19:43:14;;;;;;;14.38;11.25;;;10.10;99.90;;;;;;5009697;28;20062;-81
2023/05/12 19:45:39;;;;;;;14.10;10.68;;;10.10;99.90;;;;;;5009177;28;20085;-79
2023/05/12 19:48:06;;;;;;;14.23;12.05;;;10.10;99.90;;;;;;4991081;28;20034;-80
2023/05/12 19:50:32;;;;;;;13.50;10.75;;;10.00;99.90;;;;;;4982619;28;20035;-67
2023/05/12 19:52:57;;;;;;;14.10;11.55;;;10.10;99.90;;;;;;5006309;28;20069;-80
2023/05/12 19:55:23;;;;;;;16.42;11.48;;;10.10;99.90;;;;;;5010185;28;20054;-79
2023/05/12 19:57:50;;;;;;;16.05;11.30;;;10.10;99.90;;;;;;4993286;28;20113;-77
2023/05/12 20:00:17;;;;;;;13.80;11.30;;;10.10;99.90;;;;;;5013026;28;20034;-77
2023/05/12 20:02:43;;;;;;;18.17;12.57;;;10.00;99.90;;;;;;5014453;28;20085;-77
2023/05/12 20:05:08;;;;;;;18.58;12.35;;;10.00;99.90;;;;;;4993706;28;20038;-78
2023/05/12 20:07:34;;;;;;;15.98;12.48;;;10.00;99.90;;;;;;5010350;28;20056;-79
2023/05/12 20:10:00;;;;;;;20.08;13.23;;;10.00;99.90;;;;;;4992110;28;20030;-78
2023/05/12 20:12:26;;;;;;;16.48;11.77;;;9.90;99.90;;;;;;5010798;28;20485;-80
2023/05/12 20:14:52;;;;;;;14.18;11.32;;;10.00;99.90;;;;;;5012145;28;20034;-77
2023/05/12 20:17:17;;;;;;;18.48;12.35;;;9.90;99.90;;;;;;4995002;28;20046;-77
2023/05/12 20:19:43;;;;;;;19.92;13.00;;;9.90;99.90;;;;;;5011937;28;20049;-77
2023/05/12 20:22:09;;;;;;;17.10;13.30;;;10.00;99.90;;;;;;5009995;28;20445;-78
2023/05/12 20:24:34;;;;;;;18.50;13.43;;;9.90;99.90;;;;;;5010596;28;20038;-79
2023/05/12 20:27:00;;;;;;;24.65;14.48;;;9.90;99.90;;;;;;4993070;28;20040;-80
2023/05/12 20:29:26;;;;;;;17.85;13.45;;;9.90;99.90;;;;;;5010261;28;20035;-79
2023/05/12 20:31:52;;;;;;;16.67;12.65;;;9.90;99.90;;;;;;5011014;28;20034;-77
2023/05/12 20:34:18;;;;;;;18.63;13.95;;;9.90;99.90;;;;;;5010119;28;20034;-80
2023/05/12 20:36:44;;;;;;;19.42;13.05;;;9.90;99.90;;;;;;5012847;28;20545;-79
2023/05/12 20:39:10;;;;;;;16.52;13.07;;;9.90;99.90;;;;;;5009733;28;20026;-79
2023/05/12 20:41:38;;;;;;;19.88;13.05;;;9.90;99.90;;;;;;5009182;28;20035;-78
2023/05/12 20:44:04;;;;;;;19.83;13.73;;;9.90;99.90;;;;;;5012953;28;20501;-78
2023/05/12 20:46:30;;;;;;;17.08;12.45;;;9.90;99.90;;;;;;4992286;28;20133;-78
2023/05/12 20:48:56;;;;;;;19.42;12.82;;;9.90;99.90;;;;;;4993513;28;20023;-78
2023/05/12 20:51:22;;;;;;;16.90;12.70;;;9.90;99.90;;;;;;4992629;28;20045;-79
2023/05/12 20:53:48;;;;;;;17.15;12.88;;;9.80;99.90;;;;;;5012215;28;20085;-80
2023/05/12 20:56:13;;;;;;;20.27;13.85;;;9.90;99.90;;;;;;5015235;28;20042;-79
2023/05/12 20:58:39;;;;;;;20.73;13.77;;;9.90;99.90;;;;;;4995119;28;20042;-79
2023/05/12 21:01:05;;;;;;;19.27;14.48;;;9.90;99.90;;;;;;4995194;28;20059;-81
2023/05/12 21:03:32;;;;;;;22.63;14.77;;;9.90;99.90;;;;;;4999351;28;20029;-80
2023/05/12 21:05:58;;;;;;;23.75;15.93;;;9.90;99.90;;;;;;5000358;28;20049;-82
2023/05/12 21:08:24;;;;;;;20.13;15.77;;;9.90;99.90;;;;;;5015003;28;20014;-80
2023/05/12 21:10:49;;;;;;;25.25;17.65;;;9.90;99.90;;;;;;5009529;28;20030;-79
2023/05/12 21:13:15;;;;;;;22.63;16.48;;;9.90;99.90;;;;;;5008492;28;20030;-78
2023/05/12 21:15:41;;;;;;;21.70;15.65;;;9.90;99.90;;;;;;4991592;28;20038;-79
2023/05/12 21:18:07;;;;;;;22.38;14.70;;;9.90;99.90;;;;;;4991176;28;20106;-79
2023/05/12 21:20:33;;;;;;;18.98;14.02;;;9.90;99.90;;;;;;5005998;28;20061;-80
2023/05/12 21:22:59;;;;;;;23.63;15.90;;;9.90;99.90;;;;;;5004633;28;20038;-80
2023/05/12 21:25:25;;;;;;;19.33;14.18;;;10.00;99.90;;;;;;5007124;28;20117;-81
2023/05/12 21:27:51;;;;;;;20.42;14.48;;;10.00;99.90;;;;;;5006725;28;20030;-78
2023/05/12 21:30:16;;;;;;;26.10;14.80;;;10.00;99.90;;;;;;5006268;28;20034;-79
2023/05/12 21:32:42;;;;;;;22.38;15.70;;;10.00;99.90;;;;;;4988543;28;20042;-80
2023/05/12 21:35:08;;;;;;;22.48;15.25;;;10.00;99.90;;;;;;4991284;28;20042;-81
2023/05/12 21:37:34;;;;;;;21.30;14.55;;;10.00;99.90;;;;;;4993451;28;20042;-81
2023/05/12 21:39:59;;;;;;;20.67;14.75;;;10.00;99.90;;;;;;4994933;28;20038;-81
2023/05/12 21:42:25;;;;;;;20.92;14.00;;;10.00;99.90;;;;;;5007283;28;20034;-80
2023/05/12 21:44:51;;;;;;;16.77;13.38;;;9.90;99.90;;;;;;4989468;28;20065;-80
2023/05/12 21:47:17;;;;;;;19.50;13.13;;;9.90;99.90;;;;;;5004823;28;20058;-80
2023/05/12 21:49:43;;;;;;;19.48;13.60;;;9.90;99.90;;;;;;4989464;28;20065;-79
2023/05/12 21:52:10;;;;;;;17.88;13.10;;;9.90;99.90;;;;;;5005522;28;20031;-78
2023/05/12 21:54:35;;;;;;;18.75;12.77;;;9.90;99.90;;;;;;4984727;28;20454;-80
2023/05/12 21:57:01;;;;;;;15.93;11.45;;;9.90;99.90;;;;;;4986639;28;20031;-78
2023/05/12 21:59:28;;;;;;;17.73;12.45;;;9.90;99.90;;;;;;4990497;28;20076;-80
2023/05/12 22:01:54;;;;;;;14.98;11.40;;;9.90;99.90;;;;;;5008947;28;20085;-79
2023/05/12 22:04:19;;;;;;;17.55;11.85;;;9.80;99.90;;;;;;4990878;28;20034;-78
2023/05/12 22:06:45;;;;;;;15.40;12.00;;;9.80;99.90;;;;;;4991039;28;20049;-81
2023/05/12 22:09:11;;;;;;;16.20;12.18;;;9.80;99.90;;;;;;4989953;28;20034;-75
2023/05/12 22:11:36;;;;;;;16.77;11.60;;;9.80;99.90;;;;;;5009286;28;20038;-81
2023/05/12 22:14:02;;;;;;;17.50;12.90;;;9.80;99.90;;;;;;4991445;28;20093;-79
2023/05/12 22:16:27;;;;;;;17.08;12.82;;;9.80;99.90;;;;;;4990923;28;20042;-80
2023/05/12 22:18:53;;;;;;;17.30;12.73;;;9.80;99.90;;;;;;5006650;28;20030;-78
2023/05/12 22:21:19;;;;;;;15.40;11.60;;;9.80;99.90;;;;;;4987625;28;20070;-78
2023/05/12 22:23:44;;;;;;;18.40;12.15;;;9.80;99.90;;;;;;4988194;28;20045;-78
2023/05/12 22:26:10;;;;;;;16.95;12.13;;;9.80;99.90;;;;;;5005209;28;20038;-78
2023/05/12 22:28:36;;;;;;;18.40;12.82;;;9.80;99.90;;;;;;5005501;28;20493;-78
2023/05/12 22:31:01;;;;;;;16.55;12.75;;;9.80;99.90;;;;;;4987717;28;20040;-78
2023/05/12 22:33:27;;;;;;;16.08;12.15;;;9.80;99.90;;;;;;4988767;28;20035;-77
2023/05/12 22:35:53;;;;;;;20.02;12.88;;;9.80;99.90;;;;;;5004408;28;20378;-78
2023/05/12 22:38:18;;;;;;;23.27;13.15;;;9.80;99.90;;;;;;4986921;28;20038;-78
2023/05/12 22:40:45;;;;;;;18.10;13.10;;;9.80;99.90;;;;;;5004751;28;20042;-78
2023/05/12 22:43:12;;;;;;;16.48;12.63;;;9.80;99.90;;;;;;5005847;28;20041;-78
2023/05/12 22:45:37;;;;;;;18.58;13.77;;;9.80;99.90;;;;;;5006236;28;20026;-78
2023/05/12 22:48:03;;;;;;;18.48;14.00;;;9.80;99.90;;;;;;5008059;28;20117;-78
2023/05/12 22:50:29;;;;;;;19.73;13.52;;;9.80;99.90;;;;;;4990245;28;20042;-78
2023/05/12 22:52:56;;;;;;;20.00;13.57;;;9.80;99.90;;;;;;4990931;28;20034;-78
2023/05/12 22:55:29;;;;;;;20.30;14.95;;;9.80;99.90;;;;;;4992058;28;20050;-78
2023/05/12 22:57:56;;;;;;;18.38;13.38;;;9.90;99.90;;;;;;4993513;28;20042;-78
2023/05/12 23:00:22;;;;;;;19.15;13.48;;;9.90;99.90;;;;;;4993434;28;20045;-78
2023/05/12 23:02:47;;;;;;;19.88;13.55;;;9.80;99.90;;;;;;4993587;28;20046;-78
2023/05/12 23:05:13;;;;;;;19.45;13.77;;;9.80;99.90;;;;;;4994756;28;20041;-77
2023/05/12 23:07:39;;;;;;;20.95;13.75;;;9.80;99.90;;;;;;4995241;28;20035;-77
2023/05/12 23:10:05;;;;;;;20.30;14.07;;;9.80;99.90;;;;;;5012313;28;20026;-76
2023/05/12 23:12:31;;;;;;;18.17;12.88;;;9.90;99.90;;;;;;5012754;28;20026;-76
2023/05/12 23:14:57;;;;;;;19.92;13.30;;;9.80;99.90;;;;;;4994488;28;20030;-77
2023/05/12 23:17:22;;;;;;;20.20;14.10;;;9.80;99.90;;;;;;4994009;28;20058;-76
2023/05/12 23:19:48;;;;;;;20.77;14.35;;;9.80;99.90;;;;;;4994012;28;20045;-77
2023/05/12 23:22:13;;;;;;;20.00;13.35;;;9.80;99.90;;;;;;5011515;28;20114;-77
2023/05/12 23:24:39;;;;;;;20.27;14.65;;;9.80;99.90;;;;;;5010918;28;20065;-78
2023/05/12 23:27:05;;;;;;;20.73;14.52;;;9.80;99.90;;;;;;5010434;28;20058;-78
2023/05/12 23:29:32;;;;;;;22.30;15.18;;;9.80;99.90;;;;;;5010774;28;20604;-76
2023/05/12 23:31:58;;;;;;;20.67;15.05;;;9.80;99.90;;;;;;4994595;28;20035;-77
2023/05/12 23:34:24;;;;;;;23.48;15.30;;;9.80;99.90;;;;;;4993218;28;20061;-77
2023/05/12 23:36:50;;;;;;;20.13;13.95;;;9.90;99.90;;;;;;5011007;28;20030;-78
2023/05/12 23:39:16;;;;;;;24.65;16.23;;;9.80;99.90;;;;;;4994109;28;20140;-78
2023/05/12 23:41:41;;;;;;;22.80;14.35;;;9.80;99.90;;;;;;5011696;28;20169;-77
2023/05/12 23:44:07;;;;;;;21.92;15.07;;;9.80;99.90;;;;;;5011041;28;20022;-78
2023/05/12 23:46:33;;;;;;;23.42;15.45;;;9.80;99.90;;;;;;5011418;28;20061;-77
2023/05/12 23:48:58;;;;;;;25.40;15.75;;;9.80;99.90;;;;;;4993530;28;20034;-77
2023/05/12 23:51:24;;;;;;;25.58;14.25;;;9.80;99.90;;;;;;5010202;28;20053;-77
2023/05/12 23:53:50;;;;;;;22.73;14.75;;;9.80;99.90;;;;;;5009381;28;20049;-77
2023/05/12 23:56:16;;;;;;;20.80;14.00;;;9.80;99.90;;;;;;4991020;28;20035;-77
2023/05/12 23:58:41;;;;;;;20.40;14.18;;;9.80;99.90;;;;;;5008670;28;20042;-78
